createdAt,value
2022-09-05T06:15:21.285Z,16.70
2022-09-05T06:18:28.019Z,16.70
2022-09-05T06:22:09.393Z,16.80
2022-09-05T06:25:16.962Z,16.80
2022-09-05T06:28:22.677Z,16.90
2022-09-05T06:31:27.582Z,17.00
2022-09-05T06:34:35.775Z,17.10
2022-09-05T06:37:22.252Z,17.20
2022-09-05T06:40:12.998Z,17.20
2022-09-05T06:43:13.562Z,17.30
2022-09-05T06:46:01.016Z,17.40
2022-09-05T06:49:28.501Z,17.50
2022-09-05T06:52:28.204Z,17.50
2022-09-05T06:55:17.549Z,17.60
2022-09-05T06:58:22.086Z,17.70
2022-09-05T07:00:51.547Z,17.80
2022-09-05T07:03:46.856Z,17.80
2022-09-05T07:07:01.173Z,17.90
2022-09-05T07:09:47.395Z,18.00
2022-09-05T07:12:29.997Z,17.90
2022-09-05T07:15:19.919Z,18.00
2022-09-05T07:18:10.883Z,18.00
2022-09-05T07:21:17.518Z,18.10
2022-09-05T07:24:09.549Z,18.20
2022-09-05T07:26:54.212Z,18.20
2022-09-05T07:29:32.449Z,18.30
2022-09-05T07:32:01.257Z,18.40
2022-09-05T07:34:32.769Z,18.50
2022-09-05T07:37:14.760Z,18.60
2022-09-05T07:40:25.047Z,18.50
2022-09-05T07:43:09.233Z,18.60
2022-09-05T07:45:46.341Z,18.70
2022-09-05T07:48:34.537Z,18.80
2022-09-05T07:55:49.308Z,18.80
2022-09-05T07:56:52.642Z,18.90
2022-09-05T07:57:22.463Z,18.90
2022-09-05T07:59:41.594Z,18.90
2022-09-05T08:02:11.766Z,19.00
2022-09-05T08:04:40.955Z,19.10
2022-09-05T08:07:48.049Z,19.30
2022-09-05T08:10:09.036Z,19.40
2022-09-05T08:13:22.807Z,19.50
2022-09-05T08:16:09.685Z,19.40
2022-09-05T08:18:30.804Z,19.20
2022-09-05T08:21:27.371Z,19.30
2022-09-05T08:24:14.864Z,19.30
2022-09-05T08:26:50.503Z,19.50
2022-09-05T08:29:40.768Z,19.60
2022-09-05T08:32:08.486Z,19.80
2022-09-05T08:34:48.349Z,19.80
2022-09-05T08:37:21.959Z,20.00
2022-09-05T08:40:10.523Z,20.20
2022-09-05T08:46:44.300Z,20.50
2022-09-05T08:46:44.963Z,20.40
2022-09-05T08:49:37.790Z,20.50
2022-09-05T08:52:16.462Z,20.50
2022-09-05T08:55:04.283Z,20.50
2022-09-05T08:57:45.669Z,20.60
2022-09-05T09:00:18.861Z,20.60
2022-09-05T09:03:11.778Z,20.60
2022-09-05T09:06:35.109Z,20.60
2022-09-05T09:09:19.987Z,20.70
2022-09-05T09:12:12.986Z,20.90
2022-09-05T09:15:11.129Z,21.10
2022-09-05T09:17:42.887Z,21.20
2022-09-05T09:20:33.424Z,21.20
2022-09-05T09:23:32.228Z,21.40
2022-09-05T09:26:16.941Z,21.50
2022-09-05T09:28:56.312Z,21.60
2022-09-05T09:31:52.830Z,21.70
2022-09-05T09:34:38.308Z,21.90
2022-09-05T09:37:50.895Z,22.00
2022-09-05T09:40:47.411Z,22.00
2022-09-05T09:43:44.226Z,22.20
2022-09-05T09:46:46.252Z,22.40
2022-09-05T09:49:27.627Z,22.50
2022-09-05T09:52:20.898Z,22.50
2022-09-05T09:55:09.604Z,22.60
2022-09-05T09:58:31.778Z,22.80
2022-09-05T10:01:36.517Z,22.80
2022-09-05T10:10:34.989Z,23.00
2022-09-05T10:10:49.409Z,23.10
2022-09-05T10:14:26.220Z,23.30
2022-09-05T10:17:56.141Z,23.80
2022-09-05T10:20:42.634Z,23.80
2022-09-05T10:23:26.479Z,23.80
2022-09-05T10:26:40.875Z,23.80
2022-09-05T10:29:36.891Z,23.80
2022-09-05T10:35:05.078Z,23.80
2022-09-05T10:35:22.414Z,23.90
2022-09-05T10:38:10.584Z,24.00
2022-09-05T10:41:09.721Z,24.10
2022-09-05T10:43:30.993Z,24.20
2022-09-05T10:45:57.678Z,24.10
2022-09-05T10:48:44.763Z,24.20
2022-09-05T10:51:27.058Z,24.50
2022-09-05T10:54:36.627Z,24.60
2022-09-05T10:57:20.699Z,24.90
2022-09-05T11:02:27.085Z,25.10
2022-09-05T11:02:47.523Z,25.00
2022-09-05T11:05:25.263Z,24.80
2022-09-05T11:08:16.714Z,24.70
2022-09-05T11:10:59.937Z,24.80
2022-09-05T11:13:49.926Z,25.10
2022-09-05T11:16:49.939Z,25.20
2022-09-05T11:19:39.681Z,25.20
2022-09-05T11:22:22.727Z,25.20
2022-09-05T11:24:56.789Z,25.10
2022-09-05T11:27:40.377Z,25.20
2022-09-05T11:30:27.352Z,25.40
2022-09-05T11:38:30.566Z,25.30
2022-09-05T11:40:00.587Z,25.40
2022-09-05T11:40:08.377Z,25.40
2022-09-05T11:42:34.418Z,25.50
2022-09-05T11:45:36.705Z,25.40
2022-09-05T11:48:13.206Z,25.50
2022-09-05T11:51:05.341Z,25.70
2022-09-05T11:53:57.416Z,25.90
2022-09-05T11:56:42.637Z,25.80
2022-09-05T11:59:38.381Z,25.70
2022-09-05T12:02:34.658Z,25.50
2022-09-05T12:05:58.700Z,25.60
2022-09-05T12:08:43.694Z,25.90
2022-09-05T12:11:36.097Z,25.90
2022-09-05T12:14:36.649Z,25.90
2022-09-05T12:17:34.887Z,26.10
2022-09-05T12:20:17.073Z,25.90
2022-09-05T12:23:38.479Z,26.10
2022-09-05T12:27:39.965Z,26.20
2022-09-05T12:29:37.404Z,25.90
2022-09-05T12:33:45.356Z,25.70
2022-09-05T12:36:12.499Z,25.80
2022-09-05T12:40:43.357Z,25.90
2022-09-05T12:41:39.326Z,26.10
2022-09-05T12:44:41.994Z,26.10
2022-09-05T12:47:16.617Z,26.30
2022-09-05T12:50:14.898Z,26.40
2022-09-05T12:52:46.502Z,26.20
2022-09-05T12:55:33.844Z,26.00
2022-09-05T13:02:27.823Z,26.00
2022-09-05T13:03:13.476Z,26.10
2022-09-05T13:04:16.117Z,26.20
2022-09-05T13:06:46.304Z,26.50
2022-09-05T13:09:51.910Z,26.80
2022-09-05T13:14:47.216Z,26.60
2022-09-05T13:15:36.092Z,26.70
2022-09-05T13:18:10.171Z,26.60
2022-09-05T13:20:45.448Z,26.60
2022-09-05T13:23:32.091Z,26.40
2022-09-05T13:26:11.919Z,26.20
2022-09-05T13:28:43.540Z,26.20
2022-09-05T13:37:52.922Z,26.40
2022-09-05T13:37:58.802Z,26.50
2022-09-05T13:38:11.856Z,26.80
2022-09-05T13:39:47.419Z,26.80
2022-09-05T13:42:18.425Z,26.80
2022-09-05T13:44:46.783Z,26.70
2022-09-05T13:47:53.008Z,26.80
2022-09-05T13:50:25.652Z,26.60
2022-09-05T13:53:15.229Z,26.60
2022-09-05T13:55:56.748Z,26.80
2022-09-05T13:58:56.444Z,27.00
2022-09-05T14:01:54.624Z,26.70
2022-09-05T14:05:19.513Z,26.60
2022-09-05T14:08:35.899Z,26.50
2022-09-05T14:11:25.903Z,26.50
2022-09-05T14:14:11.338Z,26.70
2022-09-05T14:16:54.658Z,26.70
2022-09-05T14:19:43.413Z,26.70
2022-09-05T14:22:22.241Z,26.90
2022-09-05T14:24:58.198Z,27.00
2022-09-05T14:27:32.270Z,26.90
2022-09-05T14:30:19.727Z,27.00
2022-09-05T14:37:41.283Z,27.00
2022-09-05T14:38:01.114Z,27.00
2022-09-05T14:39:31.822Z,27.00
2022-09-05T14:42:23.922Z,27.00
2022-09-05T14:45:16.080Z,26.80
2022-09-05T14:48:17.836Z,26.90
2022-09-05T14:51:14.650Z,27.10
2022-09-05T14:54:02.310Z,27.80
2022-09-05T15:02:09.654Z,29.00
2022-09-05T15:02:44.503Z,30.10
2022-09-05T15:03:00.952Z,29.70
2022-09-05T15:05:27.854Z,29.20
2022-09-05T15:08:04.247Z,28.50
2022-09-05T15:12:20.314Z,28.00
2022-09-05T15:14:07.523Z,27.70
2022-09-05T15:16:38.642Z,27.40
2022-09-05T15:19:08.974Z,27.40
2022-09-05T15:21:38.197Z,27.60
2022-09-05T15:24:29.547Z,27.80
2022-09-05T15:26:59.884Z,27.70
2022-09-05T15:29:34.288Z,27.90
2022-09-05T15:32:22.897Z,28.50
2022-09-05T15:34:55.329Z,28.90
2022-09-05T15:37:23.756Z,29.70
2022-09-05T15:40:22.510Z,29.60
2022-09-05T15:42:55.566Z,28.60
2022-09-05T15:45:36.036Z,27.80
2022-09-05T15:48:33.779Z,26.80
2022-09-05T15:51:11.031Z,26.10
2022-09-05T15:53:38.569Z,25.70
2022-09-05T15:56:11.321Z,25.60
2022-09-05T15:58:53.847Z,25.70
2022-09-05T16:01:58.583Z,25.60
2022-09-05T16:10:30.752Z,25.60
2022-09-05T16:10:30.949Z,25.70
2022-09-05T16:10:36.334Z,25.60
2022-09-05T16:12:48.777Z,25.60
2022-09-05T16:18:06.919Z,25.30
2022-09-05T16:23:13.033Z,25.20
2022-09-05T16:23:31.195Z,25.10
2022-09-05T16:24:04.945Z,25.10
2022-09-05T16:26:39.453Z,25.10
2022-09-05T16:29:26.747Z,25.00
2022-09-05T16:32:13.011Z,24.90
2022-09-05T16:34:49.855Z,24.70
2022-09-05T16:37:39.687Z,24.70
2022-09-05T16:40:15.251Z,24.70
2022-09-05T16:42:50.672Z,24.50
2022-09-05T16:45:46.389Z,24.30
2022-09-05T16:48:22.359Z,24.20
2022-09-05T16:51:35.881Z,24.10
2022-09-05T16:54:31.821Z,24.00
2022-09-05T16:57:01.449Z,23.80
2022-09-05T16:59:34.493Z,23.70
2022-09-05T17:02:10.172Z,23.60
2022-09-05T17:05:03.746Z,23.50
2022-09-05T17:07:52.374Z,23.50
2022-09-05T17:10:32.651Z,23.40
2022-09-05T17:13:00.162Z,23.30
2022-09-05T17:15:39.483Z,23.30
2022-09-05T17:18:25.278Z,23.20
2022-09-05T17:20:56.564Z,23.10
2022-09-05T17:29:18.960Z,23.00
2022-09-05T17:29:24.241Z,23.00
2022-09-05T17:32:51.118Z,22.70
2022-09-05T17:35:23.455Z,22.60
2022-09-05T17:38:28.469Z,22.50
2022-09-05T17:41:15.363Z,22.50
2022-09-05T17:43:42.526Z,22.40
2022-09-05T17:46:43.737Z,22.30
2022-09-05T17:49:19.911Z,22.20
2022-09-05T17:51:52.763Z,22.20
2022-09-05T17:54:27.691Z,22.10
2022-09-05T17:56:54.319Z,22.10
2022-09-05T17:59:21.242Z,22.00
2022-09-05T18:02:15.592Z,22.00
2022-09-05T18:04:53.639Z,22.00
2022-09-05T18:07:26.377Z,21.90
2022-09-05T18:10:12.046Z,21.80
2022-09-05T18:13:14.181Z,21.80
2022-09-05T18:15:29.350Z,21.70
2022-09-05T18:18:08.675Z,21.70
2022-09-05T18:21:12.219Z,21.70
2022-09-05T18:23:54.331Z,21.60
2022-09-05T18:26:24.504Z,21.50
2022-09-05T18:28:54.297Z,21.50
2022-09-05T18:31:41.646Z,21.40
2022-09-05T18:34:21.144Z,21.40
2022-09-05T18:36:53.106Z,21.40
2022-09-05T18:39:37.700Z,21.30
2022-09-05T18:42:34.456Z,21.30
2022-09-05T18:45:16.045Z,21.30
2022-09-05T18:47:57.074Z,21.30
2022-09-05T18:50:34.259Z,21.20
2022-09-05T18:53:09.960Z,21.20
2022-09-05T18:56:14.352Z,21.20
2022-09-05T18:58:34.244Z,21.20
2022-09-05T19:01:25.822Z,21.10
2022-09-05T19:03:59.556Z,21.10
2022-09-05T19:06:36.634Z,21.00
2022-09-05T19:09:14.142Z,21.00
2022-09-05T19:12:32.928Z,21.00
2022-09-05T19:14:57.422Z,20.90
2022-09-05T19:17:47.146Z,20.80
2022-09-05T19:20:30.741Z,20.80
2022-09-05T19:23:12.724Z,20.80
2022-09-05T19:25:45.431Z,20.70
2022-09-05T19:36:53.599Z,20.60
2022-09-05T19:37:12.521Z,20.60
2022-09-05T19:37:14.596Z,20.70
2022-09-05T19:37:38.551Z,20.60
2022-09-05T19:47:25.337Z,20.50
2022-09-05T19:47:39.123Z,20.50
2022-09-05T19:47:42.806Z,20.60
2022-09-05T19:51:16.234Z,20.40
2022-09-05T19:53:56.540Z,20.50
2022-09-05T19:56:38.157Z,20.40
2022-09-05T19:59:22.915Z,20.40
2022-09-05T20:01:51.801Z,20.40
2022-09-05T20:04:19.507Z,20.30
2022-09-05T20:06:48.065Z,20.30
2022-09-05T20:09:18.878Z,20.20
2022-09-05T20:11:51.248Z,20.20
2022-09-05T20:14:30.519Z,20.20
2022-09-05T20:17:01.344Z,20.10
2022-09-05T20:19:37.249Z,20.20
2022-09-05T20:22:40.370Z,20.10
2022-09-05T20:24:55.678Z,20.10
2022-09-05T20:27:27.071Z,20.10
2022-09-05T20:29:59.882Z,20.10
2022-09-05T20:32:39.827Z,20.00
2022-09-05T20:41:05.333Z,20.00
2022-09-05T20:43:18.016Z,20.00
2022-09-05T20:43:31.860Z,19.90
2022-09-05T20:44:16.962Z,19.80
